sensor_id;sensor_type;location;lat;lon;timestamp;pressure;altitude;pressure_sealevel;temperature;humidity
10606;BME280;5350;42.698;23.148;2024-01-30T00:00:01;95540.22;;;-0.51;78.85
10606;BME280;5350;42.698;23.148;2024-01-30T00:02:28;95539.38;;;-0.66;79.66
10606;BME280;5350;42.698;23.148;2024-01-30T00:04:56;95542.06;;;-0.59;80.11
10606;BME280;5350;42.698;23.148;2024-01-30T00:07:23;95547.16;;;-0.51;80.33
10606;BME280;5350;42.698;23.148;2024-01-30T00:09:50;95546.81;;;-0.48;79.86
10606;BME280;5350;42.698;23.148;2024-01-30T00:12:16;95552.69;;;-0.54;79.71
10606;BME280;5350;42.698;23.148;2024-01-30T00:14:43;95549.78;;;-0.97;79.99
10606;BME280;5350;42.698;23.148;2024-01-30T00:17:10;95543.78;;;-0.97;80.49
10606;BME280;5350;42.698;23.148;2024-01-30T00:19:37;95547.19;;;-0.97;80.87
10606;BME280;5350;42.698;23.148;2024-01-30T00:22:05;95548.09;;;-0.90;80.60
10606;BME280;5350;42.698;23.148;2024-01-30T00:24:32;95548.91;;;-0.89;80.45
10606;BME280;5350;42.698;23.148;2024-01-30T00:26:59;95550.34;;;-0.87;79.72
10606;BME280;5350;42.698;23.148;2024-01-30T00:29:26;95547.81;;;-0.95;80.48
10606;BME280;5350;42.698;23.148;2024-01-30T00:31:56;95544.03;;;-0.84;80.25
10606;BME280;5350;42.698;23.148;2024-01-30T00:34:23;95546.88;;;-0.79;80.94
10606;BME280;5350;42.698;23.148;2024-01-30T00:36:49;95546.38;;;-0.74;80.68
10606;BME280;5350;42.698;23.148;2024-01-30T00:39:17;95544.91;;;-0.69;80.71
10606;BME280;5350;42.698;23.148;2024-01-30T00:41:45;95542.94;;;-0.67;79.18
10606;BME280;5350;42.698;23.148;2024-01-30T00:44:11;95543.59;;;-0.73;79.53
10606;BME280;5350;42.698;23.148;2024-01-30T00:46:38;95538.91;;;-0.69;80.06
10606;BME280;5350;42.698;23.148;2024-01-30T00:49:05;95535.19;;;-0.67;80.26
10606;BME280;5350;42.698;23.148;2024-01-30T00:51:31;95541.44;;;-0.61;80.76
10606;BME280;5350;42.698;23.148;2024-01-30T00:53:58;95541.06;;;-0.58;81.02
10606;BME280;5350;42.698;23.148;2024-01-30T00:56:26;95537.97;;;-0.54;80.72
10606;BME280;5350;42.698;23.148;2024-01-30T00:58:53;95534.56;;;-0.69;79.65
10606;BME280;5350;42.698;23.148;2024-01-30T01:01:21;95556.72;;;-0.74;79.57
10606;BME280;5350;42.698;23.148;2024-01-30T01:03:47;95538.06;;;-0.85;79.87
10606;BME280;5350;42.698;23.148;2024-01-30T01:06:14;95534.91;;;-0.95;79.55
10606;BME280;5350;42.698;23.148;2024-01-30T01:08:41;95546.75;;;-1.00;79.82
10606;BME280;5350;42.698;23.148;2024-01-30T01:11:08;95541.44;;;-1.07;80.43
10606;BME280;5350;42.698;23.148;2024-01-30T01:13:36;95537.53;;;-1.03;80.87
10606;BME280;5350;42.698;23.148;2024-01-30T01:16:03;95534.78;;;-1.01;80.70
10606;BME280;5350;42.698;23.148;2024-01-30T01:18:30;95531.69;;;-0.97;80.50
10606;BME280;5350;42.698;23.148;2024-01-30T01:20:57;95533.63;;;-0.99;80.50
10606;BME280;5350;42.698;23.148;2024-01-30T01:23:23;95529.81;;;-1.03;80.86
10606;BME280;5350;42.698;23.148;2024-01-30T01:25:50;95523.06;;;-1.12;81.43
10606;BME280;5350;42.698;23.148;2024-01-30T01:28:17;95527.91;;;-1.09;81.84
10606;BME280;5350;42.698;23.148;2024-01-30T01:30:45;95526.41;;;-1.03;82.76
10606;BME280;5350;42.698;23.148;2024-01-30T01:33:12;95526.59;;;-1.05;82.90
10606;BME280;5350;42.698;23.148;2024-01-30T01:35:39;95531.81;;;-1.13;83.27
10606;BME280;5350;42.698;23.148;2024-01-30T01:38:06;95524.88;;;-1.20;82.64
10606;BME280;5350;42.698;23.148;2024-01-30T01:40:33;95533.56;;;-1.44;83.24
10606;BME280;5350;42.698;23.148;2024-01-30T01:43:03;95529.72;;;-1.48;83.87
10606;BME280;5350;42.698;23.148;2024-01-30T01:45:30;95526.41;;;-1.65;84.43
10606;BME280;5350;42.698;23.148;2024-01-30T01:47:58;95530.44;;;-1.62;84.29
10606;BME280;5350;42.698;23.148;2024-01-30T01:50:25;95530.97;;;-1.75;84.70
10606;BME280;5350;42.698;23.148;2024-01-30T01:52:52;95531.84;;;-1.90;85.63
10606;BME280;5350;42.698;23.148;2024-01-30T01:55:21;95532.78;;;-1.83;86.12
10606;BME280;5350;42.698;23.148;2024-01-30T01:57:49;95536.53;;;-1.86;85.58
10606;BME280;5350;42.698;23.148;2024-01-30T02:00:17;95538.28;;;-1.86;85.67
10606;BME280;5350;42.698;23.148;2024-01-30T02:02:45;95541.00;;;-1.80;85.54
10606;BME280;5350;42.698;23.148;2024-01-30T02:05:14;95534.69;;;-1.77;85.78
10606;BME280;5350;42.698;23.148;2024-01-30T02:07:41;95535.13;;;-1.66;85.04
10606;BME280;5350;42.698;23.148;2024-01-30T02:10:08;95533.19;;;-1.64;85.11
10606;BME280;5350;42.698;23.148;2024-01-30T02:12:35;95535.75;;;-1.55;85.34
10606;BME280;5350;42.698;23.148;2024-01-30T02:15:02;95537.31;;;-1.46;84.59
10606;BME280;5350;42.698;23.148;2024-01-30T02:17:30;95535.81;;;-1.41;84.43
10606;BME280;5350;42.698;23.148;2024-01-30T02:19:57;95542.06;;;-1.35;83.86
10606;BME280;5350;42.698;23.148;2024-01-30T02:22:25;95532.91;;;-1.38;82.90
10606;BME280;5350;42.698;23.148;2024-01-30T02:24:52;95534.50;;;-1.37;82.38
10606;BME280;5350;42.698;23.148;2024-01-30T02:27:18;95532.91;;;-1.38;82.63
10606;BME280;5350;42.698;23.148;2024-01-30T02:29:45;95537.72;;;-1.35;82.98
10606;BME280;5350;42.698;23.148;2024-01-30T02:32:12;95535.09;;;-1.27;80.81
10606;BME280;5350;42.698;23.148;2024-01-30T02:34:39;95542.25;;;-1.37;82.16
10606;BME280;5350;42.698;23.148;2024-01-30T02:37:05;95527.13;;;-1.48;82.37
10606;BME280;5350;42.698;23.148;2024-01-30T02:39:33;95531.03;;;-1.52;83.40
10606;BME280;5350;42.698;23.148;2024-01-30T02:42:00;95530.34;;;-1.46;83.42
10606;BME280;5350;42.698;23.148;2024-01-30T02:44:27;95535.88;;;-1.49;83.60
10606;BME280;5350;42.698;23.148;2024-01-30T02:46:53;95527.13;;;-1.48;83.85
10606;BME280;5350;42.698;23.148;2024-01-30T02:49:20;95525.00;;;-1.67;83.87
10606;BME280;5350;42.698;23.148;2024-01-30T02:51:47;95530.31;;;-1.69;83.65
10606;BME280;5350;42.698;23.148;2024-01-30T02:54:14;95533.38;;;-1.73;84.40
10606;BME280;5350;42.698;23.148;2024-01-30T02:56:42;95523.09;;;-1.81;84.23
10606;BME280;5350;42.698;23.148;2024-01-30T02:59:08;95562.78;;;-1.82;85.25
10606;BME280;5350;42.698;23.148;2024-01-30T03:01:42;95525.09;;;-1.99;85.85
10606;BME280;5350;42.698;23.148;2024-01-30T03:04:09;95526.69;;;-1.90;86.44
10606;BME280;5350;42.698;23.148;2024-01-30T03:06:35;95531.00;;;-1.83;86.61
10606;BME280;5350;42.698;23.148;2024-01-30T03:09:02;95526.97;;;-1.85;86.30
10606;BME280;5350;42.698;23.148;2024-01-30T03:11:30;95525.34;;;-1.78;86.71
10606;BME280;5350;42.698;23.148;2024-01-30T03:13:58;95515.63;;;-1.68;87.00
10606;BME280;5350;42.698;23.148;2024-01-30T03:16:25;95517.25;;;-1.67;85.98
10606;BME280;5350;42.698;23.148;2024-01-30T03:18:51;95517.66;;;-1.86;85.50
10606;BME280;5350;42.698;23.148;2024-01-30T03:21:18;95519.22;;;-1.77;85.02
10606;BME280;5350;42.698;23.148;2024-01-30T03:23:45;95518.56;;;-1.79;85.17
10606;BME280;5350;42.698;23.148;2024-01-30T03:26:11;95513.00;;;-1.91;84.50
10606;BME280;5350;42.698;23.148;2024-01-30T03:28:40;95516.41;;;-1.98;84.57
10606;BME280;5350;42.698;23.148;2024-01-30T03:31:08;95512.34;;;-1.93;84.19
10606;BME280;5350;42.698;23.148;2024-01-30T03:33:34;95506.91;;;-2.06;83.30
10606;BME280;5350;42.698;23.148;2024-01-30T03:36:04;95513.84;;;-1.98;83.05
10606;BME280;5350;42.698;23.148;2024-01-30T03:38:31;95515.44;;;-1.97;83.12
10606;BME280;5350;42.698;23.148;2024-01-30T03:40:58;95515.09;;;-2.02;83.23
10606;BME280;5350;42.698;23.148;2024-01-30T03:43:25;95505.47;;;-2.00;83.46
10606;BME280;5350;42.698;23.148;2024-01-30T03:45:52;95509.78;;;-1.93;82.92
10606;BME280;5350;42.698;23.148;2024-01-30T03:48:21;95500.91;;;-1.90;81.49
10606;BME280;5350;42.698;23.148;2024-01-30T03:50:48;95502.66;;;-1.91;80.98
10606;BME280;5350;42.698;23.148;2024-01-30T03:53:14;95504.78;;;-1.94;81.10
10606;BME280;5350;42.698;23.148;2024-01-30T03:55:41;95501.03;;;-1.92;80.29
10606;BME280;5350;42.698;23.148;2024-01-30T03:58:08;95502.22;;;-1.94;79.76
10606;BME280;5350;42.698;23.148;2024-01-30T04:00:34;95500.25;;;-1.92;79.74
10606;BME280;5350;42.698;23.148;2024-01-30T04:03:01;95495.16;;;-2.00;79.81
10606;BME280;5350;42.698;23.148;2024-01-30T04:05:30;95496.25;;;-1.95;79.24
10606;BME280;5350;42.698;23.148;2024-01-30T04:07:56;95490.91;;;-1.93;79.18
10606;BME280;5350;42.698;23.148;2024-01-30T04:10:23;95494.16;;;-1.99;79.76
10606;BME280;5350;42.698;23.148;2024-01-30T04:12:51;95494.47;;;-1.94;79.18
10606;BME280;5350;42.698;23.148;2024-01-30T04:15:19;95489.31;;;-1.94;78.44
10606;BME280;5350;42.698;23.148;2024-01-30T04:17:45;95500.09;;;-1.91;78.31
10606;BME280;5350;42.698;23.148;2024-01-30T04:20:14;95499.63;;;-1.94;77.68
10606;BME280;5350;42.698;23.148;2024-01-30T04:22:43;95495.78;;;-1.98;78.42
10606;BME280;5350;42.698;23.148;2024-01-30T04:25:10;95497.88;;;-2.02;78.66
10606;BME280;5350;42.698;23.148;2024-01-30T04:27:37;95498.22;;;-2.05;78.91
10606;BME280;5350;42.698;23.148;2024-01-30T04:30:05;95499.00;;;-2.04;79.40
10606;BME280;5350;42.698;23.148;2024-01-30T04:32:32;95509.50;;;-2.06;79.28
10606;BME280;5350;42.698;23.148;2024-01-30T04:34:58;95509.66;;;-2.07;79.01
10606;BME280;5350;42.698;23.148;2024-01-30T04:37:25;95515.28;;;-2.04;78.91
10606;BME280;5350;42.698;23.148;2024-01-30T04:39:53;95515.78;;;-2.00;78.56
10606;BME280;5350;42.698;23.148;2024-01-30T04:42:20;95513.81;;;-1.90;78.44
10606;BME280;5350;42.698;23.148;2024-01-30T04:44:47;95521.81;;;-1.85;78.56
10606;BME280;5350;42.698;23.148;2024-01-30T04:47:13;95516.03;;;-1.87;78.30
10606;BME280;5350;42.698;23.148;2024-01-30T04:49:40;95518.59;;;-1.87;78.09
10606;BME280;5350;42.698;23.148;2024-01-30T04:52:07;95532.91;;;-1.77;77.47
10606;BME280;5350;42.698;23.148;2024-01-30T04:54:34;95533.28;;;-1.88;77.57
10606;BME280;5350;42.698;23.148;2024-01-30T04:57:03;95532.81;;;-1.91;77.87
10606;BME280;5350;42.698;23.148;2024-01-30T04:59:31;95535.09;;;-1.96;78.07
10606;BME280;5350;42.698;23.148;2024-01-30T05:01:57;95541.88;;;-2.03;79.36
10606;BME280;5350;42.698;23.148;2024-01-30T05:04:24;95539.25;;;-1.87;79.09
10606;BME280;5350;42.698;23.148;2024-01-30T05:06:51;95534.59;;;-1.92;78.48
10606;BME280;5350;42.698;23.148;2024-01-30T05:09:17;95533.44;;;-1.89;78.84
10606;BME280;5350;42.698;23.148;2024-01-30T05:11:44;95533.78;;;-1.92;78.88
10606;BME280;5350;42.698;23.148;2024-01-30T05:14:12;95548.78;;;-1.96;79.63
10606;BME280;5350;42.698;23.148;2024-01-30T05:16:40;95550.75;;;-2.06;79.89
10606;BME280;5350;42.698;23.148;2024-01-30T05:19:08;95546.56;;;-1.99;79.99
10606;BME280;5350;42.698;23.148;2024-01-30T05:21:35;95545.09;;;-2.01;80.06
10606;BME280;5350;42.698;23.148;2024-01-30T05:24:01;95534.66;;;-2.16;80.70
10606;BME280;5350;42.698;23.148;2024-01-30T05:26:28;95553.16;;;-2.04;80.87
10606;BME280;5350;42.698;23.148;2024-01-30T05:28:55;95546.44;;;-2.13;80.60
10606;BME280;5350;42.698;23.148;2024-01-30T05:31:23;95549.31;;;-2.00;79.97
10606;BME280;5350;42.698;23.148;2024-01-30T05:33:51;95547.22;;;-2.05;80.51
10606;BME280;5350;42.698;23.148;2024-01-30T05:36:18;95544.16;;;-2.16;80.78
10606;BME280;5350;42.698;23.148;2024-01-30T05:38:44;95530.66;;;-2.26;81.12
10606;BME280;5350;42.698;23.148;2024-01-30T05:41:11;95537.75;;;-2.28;81.98
10606;BME280;5350;42.698;23.148;2024-01-30T05:43:38;95540.66;;;-2.39;82.15
10606;BME280;5350;42.698;23.148;2024-01-30T05:46:04;95537.44;;;-2.25;81.52
10606;BME280;5350;42.698;23.148;2024-01-30T05:48:33;95536.16;;;-2.46;82.32
10606;BME280;5350;42.698;23.148;2024-01-30T05:51:01;95534.06;;;-2.50;82.88
10606;BME280;5350;42.698;23.148;2024-01-30T05:53:28;95532.00;;;-2.55;83.28
10606;BME280;5350;42.698;23.148;2024-01-30T05:55:54;95538.44;;;-2.51;82.95
10606;BME280;5350;42.698;23.148;2024-01-30T05:58:21;95539.72;;;-2.63;83.42
10606;BME280;5350;42.698;23.148;2024-01-30T06:00:48;95523.94;;;-2.60;83.98
10606;BME280;5350;42.698;23.148;2024-01-30T06:03:14;95531.34;;;-2.57;84.12
10606;BME280;5350;42.698;23.148;2024-01-30T06:05:43;95546.47;;;-2.62;84.61
10606;BME280;5350;42.698;23.148;2024-01-30T06:08:09;95532.63;;;-2.53;84.10
10606;BME280;5350;42.698;23.148;2024-01-30T06:10:36;95533.75;;;-2.47;82.83
10606;BME280;5350;42.698;23.148;2024-01-30T06:13:03;95537.78;;;-2.45;82.22
10606;BME280;5350;42.698;23.148;2024-01-30T06:15:30;95546.16;;;-2.51;82.60
10606;BME280;5350;42.698;23.148;2024-01-30T06:17:58;95538.41;;;-2.42;82.53
10606;BME280;5350;42.698;23.148;2024-01-30T06:20:24;95539.06;;;-2.40;82.03
10606;BME280;5350;42.698;23.148;2024-01-30T06:22:53;95543.56;;;-2.34;81.78
10606;BME280;5350;42.698;23.148;2024-01-30T06:25:19;95549.03;;;-2.46;81.74
10606;BME280;5350;42.698;23.148;2024-01-30T06:27:46;95551.63;;;-2.46;82.42
10606;BME280;5350;42.698;23.148;2024-01-30T06:30:13;95543.09;;;-2.54;83.10
10606;BME280;5350;42.698;23.148;2024-01-30T06:32:40;95549.38;;;-2.49;82.86
10606;BME280;5350;42.698;23.148;2024-01-30T06:35:07;95543.25;;;-2.48;82.38
10606;BME280;5350;42.698;23.148;2024-01-30T06:37:35;95543.72;;;-2.44;82.24
10606;BME280;5350;42.698;23.148;2024-01-30T06:40:04;95551.78;;;-2.39;81.14
10606;BME280;5350;42.698;23.148;2024-01-30T06:42:31;95548.09;;;-2.45;82.38
10606;BME280;5350;42.698;23.148;2024-01-30T06:44:58;95550.66;;;-2.36;81.67
10606;BME280;5350;42.698;23.148;2024-01-30T06:47:25;95541.00;;;-2.42;81.87
10606;BME280;5350;42.698;23.148;2024-01-30T06:49:51;95548.53;;;-2.33;81.30
10606;BME280;5350;42.698;23.148;2024-01-30T06:52:18;95549.69;;;-2.27;81.65
10606;BME280;5350;42.698;23.148;2024-01-30T06:54:45;95547.75;;;-2.25;80.96
10606;BME280;5350;42.698;23.148;2024-01-30T06:57:13;95558.19;;;-2.19;80.32
10606;BME280;5350;42.698;23.148;2024-01-30T06:59:39;95546.75;;;-2.16;80.18
10606;BME280;5350;42.698;23.148;2024-01-30T07:02:08;95560.63;;;-2.17;80.98
10606;BME280;5350;42.698;23.148;2024-01-30T07:04:35;95557.66;;;-2.06;80.75
10606;BME280;5350;42.698;23.148;2024-01-30T07:07:03;95559.59;;;-2.08;79.95
10606;BME280;5350;42.698;23.148;2024-01-30T07:09:31;95564.78;;;-2.00;79.49
10606;BME280;5350;42.698;23.148;2024-01-30T07:11:57;95564.59;;;-1.99;79.55
10606;BME280;5350;42.698;23.148;2024-01-30T07:14:25;95569.91;;;-1.92;79.16
10606;BME280;5350;42.698;23.148;2024-01-30T07:16:52;95560.25;;;-1.98;78.67
10606;BME280;5350;42.698;23.148;2024-01-30T07:19:19;95565.84;;;-1.87;78.96
10606;BME280;5350;42.698;23.148;2024-01-30T07:21:45;95561.75;;;-1.73;77.62
10606;BME280;5350;42.698;23.148;2024-01-30T07:24:12;95566.91;;;-1.65;77.79
10606;BME280;5350;42.698;23.148;2024-01-30T07:26:39;95569.50;;;-1.65;76.78
10606;BME280;5350;42.698;23.148;2024-01-30T07:29:06;95568.22;;;-1.69;76.51
10606;BME280;5350;42.698;23.148;2024-01-30T07:31:34;95575.97;;;-1.69;76.59
10606;BME280;5350;42.698;23.148;2024-01-30T07:34:01;95571.09;;;-1.64;76.66
10606;BME280;5350;42.698;23.148;2024-01-30T07:36:28;95571.06;;;-1.56;76.94
10606;BME280;5350;42.698;23.148;2024-01-30T07:38:54;95572.06;;;-1.65;76.61
10606;BME280;5350;42.698;23.148;2024-01-30T07:41:21;95565.63;;;-1.61;76.03
10606;BME280;5350;42.698;23.148;2024-01-30T07:43:48;95546.72;;;-1.62;75.52
10606;BME280;5350;42.698;23.148;2024-01-30T07:46:15;95557.84;;;-1.53;75.65
10606;BME280;5350;42.698;23.148;2024-01-30T07:48:43;95556.53;;;-1.49;74.88
10606;BME280;5350;42.698;23.148;2024-01-30T07:51:09;95560.88;;;-1.49;74.25
10606;BME280;5350;42.698;23.148;2024-01-30T07:53:36;95551.63;;;-1.44;73.22
10606;BME280;5350;42.698;23.148;2024-01-30T07:56:03;95545.78;;;-1.30;72.06
10606;BME280;5350;42.698;23.148;2024-01-30T07:58:30;95557.09;;;-1.08;71.59
10606;BME280;5350;42.698;23.148;2024-01-30T08:00:56;95547.88;;;-1.03;70.42
10606;BME280;5350;42.698;23.148;2024-01-30T08:03:25;95557.22;;;-1.02;70.04
10606;BME280;5350;42.698;23.148;2024-01-30T08:05:53;95557.69;;;-0.98;69.08
10606;BME280;5350;42.698;23.148;2024-01-30T08:08:20;95553.16;;;-0.96;68.87
10606;BME280;5350;42.698;23.148;2024-01-30T08:10:47;95558.44;;;-0.90;69.12
10606;BME280;5350;42.698;23.148;2024-01-30T08:13:15;95543.28;;;-0.70;68.38
10606;BME280;5350;42.698;23.148;2024-01-30T08:15:42;95551.88;;;-0.55;68.62
10606;BME280;5350;42.698;23.148;2024-01-30T08:18:08;95561.53;;;-0.49;67.27
10606;BME280;5350;42.698;23.148;2024-01-30T08:20:35;95564.63;;;-0.53;66.57
10606;BME280;5350;42.698;23.148;2024-01-30T08:23:03;95558.84;;;-0.55;67.31
10606;BME280;5350;42.698;23.148;2024-01-30T08:25:30;95571.31;;;-0.59;67.84
10606;BME280;5350;42.698;23.148;2024-01-30T08:27:57;95558.13;;;-0.49;67.55
10606;BME280;5350;42.698;23.148;2024-01-30T08:30:24;95557.34;;;-0.35;66.16
10606;BME280;5350;42.698;23.148;2024-01-30T08:32:50;95559.53;;;-0.24;66.16
10606;BME280;5350;42.698;23.148;2024-01-30T08:35:17;95556.06;;;-0.17;65.51
10606;BME280;5350;42.698;23.148;2024-01-30T08:37:44;95571.75;;;-0.18;64.97
10606;BME280;5350;42.698;23.148;2024-01-30T08:40:12;95563.75;;;-0.09;65.52
10606;BME280;5350;42.698;23.148;2024-01-30T08:42:39;95556.00;;;0.06;65.52
10606;BME280;5350;42.698;23.148;2024-01-30T08:45:06;95566.38;;;0.35;65.66
10606;BME280;5350;42.698;23.148;2024-01-30T08:47:33;95567.16;;;0.36;64.58
10606;BME280;5350;42.698;23.148;2024-01-30T08:50:00;95567.00;;;0.37;64.12
10606;BME280;5350;42.698;23.148;2024-01-30T08:52:27;95570.81;;;0.41;63.81
10606;BME280;5350;42.698;23.148;2024-01-30T08:54:53;95560.38;;;0.35;63.04
10606;BME280;5350;42.698;23.148;2024-01-30T08:57:22;95571.97;;;0.39;62.81
10606;BME280;5350;42.698;23.148;2024-01-30T08:59:48;95564.75;;;0.49;63.83
10606;BME280;5350;42.698;23.148;2024-01-30T09:02:15;95571.69;;;0.48;63.33
10606;BME280;5350;42.698;23.148;2024-01-30T09:04:43;95574.28;;;0.63;63.99
10606;BME280;5350;42.698;23.148;2024-01-30T09:07:10;95582.50;;;0.66;61.76
10606;BME280;5350;42.698;23.148;2024-01-30T09:09:38;95576.97;;;0.55;62.58
10606;BME280;5350;42.698;23.148;2024-01-30T09:12:07;95584.00;;;0.75;63.19
10606;BME280;5350;42.698;23.148;2024-01-30T09:14:36;95582.81;;;0.93;63.09
10606;BME280;5350;42.698;23.148;2024-01-30T09:17:03;95578.00;;;1.11;61.31
10606;BME280;5350;42.698;23.148;2024-01-30T09:19:30;95589.00;;;0.92;61.72
10606;BME280;5350;42.698;23.148;2024-01-30T09:21:57;95577.22;;;1.10;61.57
10606;BME280;5350;42.698;23.148;2024-01-30T09:24:23;95579.47;;;1.34;62.54
10606;BME280;5350;42.698;23.148;2024-01-30T09:26:50;95568.28;;;1.34;60.23
10606;BME280;5350;42.698;23.148;2024-01-30T09:29:17;95576.19;;;1.47;60.07
10606;BME280;5350;42.698;23.148;2024-01-30T09:31:45;95569.66;;;1.51;59.65
10606;BME280;5350;42.698;23.148;2024-01-30T09:34:12;95566.91;;;1.38;58.81
10606;BME280;5350;42.698;23.148;2024-01-30T09:36:39;95565.31;;;1.58;60.31
10606;BME280;5350;42.698;23.148;2024-01-30T09:39:06;95557.81;;;1.70;59.09
10606;BME280;5350;42.698;23.148;2024-01-30T09:41:38;95555.56;;;1.39;59.43
10606;BME280;5350;42.698;23.148;2024-01-30T09:44:10;95561.50;;;1.33;59.81
10606;BME280;5350;42.698;23.148;2024-01-30T09:46:38;95559.06;;;1.52;60.46
10606;BME280;5350;42.698;23.148;2024-01-30T09:49:08;95555.13;;;1.56;59.99
10606;BME280;5350;42.698;23.148;2024-01-30T09:51:35;95558.03;;;1.47;59.44
10606;BME280;5350;42.698;23.148;2024-01-30T09:54:03;95548.28;;;1.28;58.28
10606;BME280;5350;42.698;23.148;2024-01-30T09:56:29;95562.25;;;1.27;58.05
10606;BME280;5350;42.698;23.148;2024-01-30T09:58:56;95562.72;;;1.58;60.13
10606;BME280;5350;42.698;23.148;2024-01-30T10:01:23;95558.78;;;1.62;58.37
10606;BME280;5350;42.698;23.148;2024-01-30T10:03:50;95548.25;;;1.70;58.19
10606;BME280;5350;42.698;23.148;2024-01-30T10:06:20;95549.34;;;1.82;57.80
10606;BME280;5350;42.698;23.148;2024-01-30T10:08:47;95550.47;;;2.01;57.26
10606;BME280;5350;42.698;23.148;2024-01-30T10:11:14;95554.59;;;2.16;54.69
10606;BME280;5350;42.698;23.148;2024-01-30T10:13:41;95553.22;;;2.20;54.44
10606;BME280;5350;42.698;23.148;2024-01-30T10:16:07;95547.72;;;2.09;54.16
10606;BME280;5350;42.698;23.148;2024-01-30T10:18:34;95539.09;;;2.29;54.23
10606;BME280;5350;42.698;23.148;2024-01-30T10:21:01;95545.69;;;1.98;54.87
10606;BME280;5350;42.698;23.148;2024-01-30T10:23:30;95547.41;;;1.91;54.99
10606;BME280;5350;42.698;23.148;2024-01-30T10:25:57;95550.22;;;1.89;55.43
10606;BME280;5350;42.698;23.148;2024-01-30T10:28:27;95542.84;;;1.93;55.14
10606;BME280;5350;42.698;23.148;2024-01-30T10:30:58;95551.06;;;2.30;56.23
10606;BME280;5350;42.698;23.148;2024-01-30T10:33:26;95552.41;;;2.20;53.98
10606;BME280;5350;42.698;23.148;2024-01-30T10:35:55;95539.69;;;2.31;52.25
10606;BME280;5350;42.698;23.148;2024-01-30T10:38:29;95547.38;;;2.46;52.74
10606;BME280;5350;42.698;23.148;2024-01-30T10:40:57;95544.16;;;2.44;52.80
10606;BME280;5350;42.698;23.148;2024-01-30T10:43:29;95542.41;;;2.58;53.73
10606;BME280;5350;42.698;23.148;2024-01-30T10:45:57;95548.38;;;2.52;52.93
10606;BME280;5350;42.698;23.148;2024-01-30T10:48:30;95540.09;;;2.76;52.44
10606;BME280;5350;42.698;23.148;2024-01-30T10:50:59;95540.22;;;2.61;52.45
10606;BME280;5350;42.698;23.148;2024-01-30T10:53:27;95537.44;;;2.22;52.39
10606;BME280;5350;42.698;23.148;2024-01-30T10:55:56;95529.59;;;1.81;53.86
10606;BME280;5350;42.698;23.148;2024-01-30T10:58:24;95533.06;;;1.67;55.30
10606;BME280;5350;42.698;23.148;2024-01-30T11:00:52;95523.41;;;1.82;54.38
10606;BME280;5350;42.698;23.148;2024-01-30T11:03:19;95520.44;;;1.85;55.08
10606;BME280;5350;42.698;23.148;2024-01-30T11:05:49;95524.88;;;1.91;54.15
10606;BME280;5350;42.698;23.148;2024-01-30T11:08:22;95507.03;;;2.16;55.02
10606;BME280;5350;42.698;23.148;2024-01-30T11:10:56;95506.59;;;2.47;52.91
10606;BME280;5350;42.698;23.148;2024-01-30T11:13:27;95515.44;;;2.65;52.99
10606;BME280;5350;42.698;23.148;2024-01-30T11:15:54;95509.97;;;3.01;52.53
10606;BME280;5350;42.698;23.148;2024-01-30T11:18:24;95508.00;;;3.16;51.36
10606;BME280;5350;42.698;23.148;2024-01-30T11:20:51;95497.84;;;3.47;51.06
10606;BME280;5350;42.698;23.148;2024-01-30T11:23:18;95496.22;;;3.59;50.70
10606;BME280;5350;42.698;23.148;2024-01-30T11:25:45;95501.81;;;3.69;49.51
10606;BME280;5350;42.698;23.148;2024-01-30T11:28:16;95503.44;;;3.83;49.90
10606;BME280;5350;42.698;23.148;2024-01-30T11:30:44;95499.44;;;3.94;49.54
10606;BME280;5350;42.698;23.148;2024-01-30T11:33:13;95488.59;;;3.90;48.83
10606;BME280;5350;42.698;23.148;2024-01-30T11:35:41;95490.59;;;3.82;49.35
10606;BME280;5350;42.698;23.148;2024-01-30T11:38:09;95490.16;;;4.18;49.98
10606;BME280;5350;42.698;23.148;2024-01-30T11:40:38;95496.63;;;3.82;48.40
10606;BME280;5350;42.698;23.148;2024-01-30T11:43:05;95495.78;;;4.08;48.84
10606;BME280;5350;42.698;23.148;2024-01-30T11:45:35;95487.75;;;4.23;48.82
10606;BME280;5350;42.698;23.148;2024-01-30T11:48:02;95500.09;;;4.47;47.74
10606;BME280;5350;42.698;23.148;2024-01-30T11:50:29;95496.28;;;4.43;48.87
10606;BME280;5350;42.698;23.148;2024-01-30T11:52:57;95494.13;;;4.40;48.51
10606;BME280;5350;42.698;23.148;2024-01-30T11:55:24;95494.03;;;4.59;47.49
10606;BME280;5350;42.698;23.148;2024-01-30T11:57:51;95490.81;;;4.64;47.05
10606;BME280;5350;42.698;23.148;2024-01-30T12:00:18;95500.53;;;4.37;47.50
10606;BME280;5350;42.698;23.148;2024-01-30T12:02:50;95482.28;;;4.37;48.80
10606;BME280;5350;42.698;23.148;2024-01-30T12:05:21;95475.75;;;4.66;49.88
10606;BME280;5350;42.698;23.148;2024-01-30T12:07:48;95474.97;;;5.03;47.66
10606;BME280;5350;42.698;23.148;2024-01-30T12:10:15;95459.75;;;5.00;46.84
10606;BME280;5350;42.698;23.148;2024-01-30T12:12:45;95469.78;;;5.28;46.75
10606;BME280;5350;42.698;23.148;2024-01-30T12:15:12;95459.16;;;4.98;46.64
10606;BME280;5350;42.698;23.148;2024-01-30T12:17:39;95459.50;;;4.70;46.54
10606;BME280;5350;42.698;23.148;2024-01-30T12:20:09;95448.22;;;4.76;46.92
10606;BME280;5350;42.698;23.148;2024-01-30T12:22:36;95449.34;;;4.94;47.38
10606;BME280;5350;42.698;23.148;2024-01-30T12:25:04;95453.94;;;5.29;47.31
10606;BME280;5350;42.698;23.148;2024-01-30T12:27:31;95454.47;;;5.62;46.43
10606;BME280;5350;42.698;23.148;2024-01-30T12:29:58;95446.06;;;5.85;45.68
10606;BME280;5350;42.698;23.148;2024-01-30T12:32:25;95444.03;;;5.62;44.87
10606;BME280;5350;42.698;23.148;2024-01-30T12:34:55;95439.31;;;5.96;44.75
10606;BME280;5350;42.698;23.148;2024-01-30T12:37:24;95440.06;;;5.78;45.53
10606;BME280;5350;42.698;23.148;2024-01-30T12:39:52;95435.38;;;5.87;44.28
10606;BME280;5350;42.698;23.148;2024-01-30T12:42:20;95435.69;;;5.97;44.25
10606;BME280;5350;42.698;23.148;2024-01-30T12:44:48;95439.16;;;5.66;43.72
10606;BME280;5350;42.698;23.148;2024-01-30T12:47:15;95438.50;;;5.52;44.80
10606;BME280;5350;42.698;23.148;2024-01-30T12:49:42;95426.06;;;5.73;44.19
10606;BME280;5350;42.698;23.148;2024-01-30T12:52:09;95425.47;;;5.71;44.81
10606;BME280;5350;42.698;23.148;2024-01-30T12:54:37;95420.47;;;6.12;44.35
10606;BME280;5350;42.698;23.148;2024-01-30T12:57:05;95426.34;;;6.07;44.63
10606;BME280;5350;42.698;23.148;2024-01-30T12:59:31;95423.81;;;6.19;43.18
10606;BME280;5350;42.698;23.148;2024-01-30T13:02:00;95413.28;;;6.25;43.55
10606;BME280;5350;42.698;23.148;2024-01-30T13:04:27;95408.84;;;6.26;43.25